createdAt,value
2022-08-09T00:02:10.048Z,3.95
2022-08-09T00:05:03.592Z,4.20
2022-08-09T00:08:09.907Z,4.60
2022-08-09T00:10:58.089Z,4.00
2022-08-09T00:13:46.707Z,4.40
2022-08-09T00:16:36.508Z,3.92
2022-08-09T00:19:24.741Z,4.03
2022-08-09T00:22:15.181Z,3.83
2022-08-09T00:25:10.008Z,3.92
2022-08-09T00:27:58.177Z,4.20
2022-08-09T00:30:46.037Z,3.83
2022-08-09T00:33:50.853Z,4.00
2022-08-09T00:36:40.042Z,3.60
2022-08-09T00:40:14.128Z,4.13
2022-08-09T00:44:15.138Z,4.45
2022-08-09T00:45:50.589Z,4.47
2022-08-09T00:48:41.906Z,4.10
2022-08-09T00:51:54.355Z,4.30
2022-08-09T00:54:43.063Z,4.10
2022-08-09T00:57:34.389Z,3.88
2022-08-09T01:00:23.781Z,3.75
2022-08-09T01:03:30.316Z,3.95
2022-08-09T01:06:20.123Z,3.85
2022-08-09T01:09:40.770Z,3.83
2022-08-09T01:12:38.997Z,3.83
2022-08-09T01:15:29.871Z,4.00
2022-08-09T01:18:30.634Z,3.65
2022-08-09T01:21:44.555Z,3.58
2022-08-09T01:24:50.439Z,4.65
2022-08-09T01:27:41.121Z,4.10
2022-08-09T01:30:35.541Z,4.18
2022-08-09T01:33:39.239Z,4.03
2022-08-09T01:36:28.441Z,4.03
2022-08-09T01:39:17.223Z,3.83
2022-08-09T01:42:10.792Z,4.45
2022-08-09T01:44:59.556Z,4.05
2022-08-09T01:47:49.787Z,3.85
2022-08-09T01:50:41.949Z,4.00
2022-08-09T01:53:41.076Z,4.10
2022-08-09T01:56:29.672Z,3.90
2022-08-09T01:59:19.934Z,3.80
2022-08-09T02:02:09.255Z,3.58
2022-08-09T02:05:01.402Z,4.47
2022-08-09T02:08:40.276Z,3.78
2022-08-09T02:11:03.668Z,3.97
2022-08-09T02:14:07.873Z,3.97
2022-08-09T02:17:14.578Z,4.03
2022-08-09T02:20:05.611Z,4.05
2022-08-09T02:22:54.784Z,4.25
2022-08-09T02:25:52.909Z,3.90
2022-08-09T02:28:47.697Z,3.92
2022-08-09T02:31:38.869Z,4.43
2022-08-09T02:34:41.314Z,3.92
2022-08-09T02:37:37.858Z,4.22
2022-08-09T02:40:30.439Z,3.63
2022-08-09T02:43:21.051Z,4.00
2022-08-09T02:46:11.530Z,3.83
2022-08-09T02:49:02.833Z,4.45
2022-08-09T02:51:52.582Z,4.07
2022-08-09T02:54:53.977Z,4.05
2022-08-09T02:58:00.548Z,3.80
2022-08-09T03:00:57.798Z,4.15
2022-08-09T03:04:17.806Z,4.70
2022-08-09T03:06:54.918Z,4.32
2022-08-09T03:09:54.352Z,4.28
2022-08-09T03:12:49.468Z,3.97
2022-08-09T03:16:04.691Z,4.25
2022-08-09T03:18:52.973Z,4.30
2022-08-09T03:21:50.864Z,5.05
2022-08-09T03:24:42.741Z,4.45
2022-08-09T03:27:45.370Z,4.25
2022-08-09T03:30:36.828Z,4.40
2022-08-09T03:33:25.226Z,4.25
2022-08-09T03:36:16.859Z,4.00
2022-08-09T03:39:05.089Z,4.43
2022-08-09T03:41:52.949Z,3.95
2022-08-09T03:44:54.250Z,4.07
2022-08-09T03:47:46.743Z,4.38
2022-08-09T03:50:36.195Z,4.43
2022-08-09T03:53:24.605Z,3.92
2022-08-09T03:56:19.889Z,4.20
2022-08-09T03:59:08.452Z,4.68
2022-08-09T04:02:01.832Z,3.80
2022-08-09T04:04:50.951Z,4.60
2022-08-09T04:07:53.230Z,4.82
2022-08-09T04:10:49.665Z,4.80
2022-08-09T04:14:37.435Z,4.70
2022-08-09T04:16:45.353Z,4.20
2022-08-09T04:19:51.143Z,4.53
2022-08-09T04:22:44.288Z,4.60
2022-08-09T04:25:32.005Z,4.85
2022-08-09T04:28:32.913Z,4.15
2022-08-09T04:31:26.438Z,4.53
2022-08-09T04:34:31.677Z,3.90
2022-08-09T04:37:19.886Z,4.53
2022-08-09T04:40:08.561Z,4.13
2022-08-09T04:42:56.743Z,4.50
2022-08-09T04:45:53.702Z,4.57
2022-08-09T04:48:42.061Z,4.50
2022-08-09T04:51:45.904Z,5.22
2022-08-09T04:54:33.720Z,5.10
2022-08-09T04:57:24.089Z,5.93
2022-08-09T05:00:12.652Z,5.43
2022-08-09T05:03:13.415Z,4.55
2022-08-09T05:06:09.552Z,4.72
2022-08-09T05:09:00.574Z,4.60
2022-08-09T05:11:48.553Z,5.28
2022-08-09T05:14:36.368Z,5.32
2022-08-09T05:18:39.352Z,4.93
2022-08-09T05:20:31.890Z,4.40
2022-08-09T05:23:57.606Z,4.82
2022-08-09T05:26:45.496Z,4.53
2022-08-09T05:29:35.521Z,4.30
2022-08-09T05:32:24.183Z,3.50
2022-08-09T05:35:11.593Z,3.75
2022-08-09T05:37:59.671Z,4.05
2022-08-09T05:40:50.459Z,3.15
2022-08-09T05:43:40.627Z,4.03
2022-08-09T05:46:32.434Z,3.20
2022-08-09T05:50:24.151Z,3.25
2022-08-09T05:52:27.904Z,2.63
2022-08-09T05:55:21.299Z,2.72
2022-08-09T05:58:11.791Z,2.88
2022-08-09T06:01:06.719Z,2.97
2022-08-09T06:03:58.278Z,2.50
2022-08-09T06:06:49.974Z,2.60
2022-08-09T06:09:54.039Z,2.60
2022-08-09T06:12:45.605Z,2.33
2022-08-09T06:15:51.984Z,2.83
2022-08-09T06:18:42.655Z,2.70
2022-08-09T06:21:31.344Z,3.17
2022-08-09T06:24:18.268Z,2.55
2022-08-09T06:27:06.083Z,2.75
2022-08-09T06:29:58.511Z,2.58
2022-08-09T06:33:13.233Z,2.40
2022-08-09T06:36:00.940Z,2.58
2022-08-09T06:38:50.047Z,2.63
2022-08-09T06:41:39.746Z,2.47
2022-08-09T06:44:45.927Z,1.95
2022-08-09T06:47:41.985Z,2.30
2022-08-09T06:50:31.182Z,2.35
2022-08-09T06:53:19.950Z,2.30
2022-08-09T06:56:09.245Z,1.98
2022-08-09T07:00:52.796Z,2.65
2022-08-09T07:02:05.137Z,2.15
2022-08-09T07:04:53.103Z,2.28
2022-08-09T07:08:00.742Z,2.42
2022-08-09T07:10:47.977Z,2.22
2022-08-09T07:13:45.268Z,2.30
2022-08-09T07:16:49.060Z,2.28
2022-08-09T07:19:41.472Z,2.25
2022-08-09T07:22:35.211Z,1.88
2022-08-09T07:25:24.011Z,1.90
2022-08-09T07:28:12.758Z,1.80
2022-08-09T07:31:06.942Z,1.75
2022-08-09T07:33:55.724Z,2.30
2022-08-09T07:36:43.019Z,1.90
2022-08-09T07:39:40.536Z,2.08
2022-08-09T07:42:28.950Z,1.90
2022-08-09T07:45:38.148Z,2.63
2022-08-09T07:48:30.327Z,1.90
2022-08-09T07:52:05.814Z,2.10
2022-08-09T07:54:30.137Z,1.90
2022-08-09T07:57:18.731Z,1.90
2022-08-09T08:00:09.242Z,1.95
2022-08-09T08:02:57.505Z,2.05
2022-08-09T08:05:57.552Z,1.65
2022-08-09T08:09:03.261Z,2.25
2022-08-09T08:12:24.095Z,1.83
2022-08-09T08:14:58.537Z,2.03
2022-08-09T08:17:57.981Z,2.00
2022-08-09T08:20:46.115Z,1.80
2022-08-09T08:23:34.878Z,2.00
2022-08-09T08:26:41.725Z,2.00
2022-08-09T08:29:02.711Z,1.80
2022-08-09T08:32:04.233Z,1.98
2022-08-09T08:34:55.427Z,1.88
2022-08-09T08:37:59.551Z,2.00
2022-08-09T08:40:51.021Z,1.60
2022-08-09T08:43:39.155Z,1.85
2022-08-09T08:46:41.465Z,1.90
2022-08-09T08:49:48.483Z,1.83
2022-08-09T08:52:59.525Z,1.67
2022-08-09T08:55:44.646Z,1.63
2022-08-09T08:58:33.224Z,2.10
2022-08-09T09:01:24.938Z,1.55
2022-08-09T09:04:27.410Z,2.10
2022-08-09T09:07:16.266Z,1.95
2022-08-09T09:10:09.056Z,1.80
2022-08-09T09:12:57.251Z,2.50
2022-08-09T09:15:49.183Z,2.20
2022-08-09T09:18:37.189Z,2.05
2022-08-09T09:21:26.109Z,1.90
2022-08-09T09:24:21.544Z,1.77
2022-08-09T09:28:03.314Z,1.77
2022-08-09T09:30:38.011Z,1.90
2022-08-09T09:33:44.296Z,2.35
2022-08-09T09:36:39.169Z,2.05
2022-08-09T09:39:55.177Z,1.77
2022-08-09T09:42:46.448Z,1.60
2022-08-09T09:48:59.819Z,1.77
2022-08-09T09:51:47.845Z,2.30
2022-08-09T09:54:55.205Z,1.52
2022-08-09T09:58:00.676Z,1.60
2022-08-09T10:00:59.051Z,1.55
2022-08-09T10:03:56.455Z,1.98
2022-08-09T10:06:51.820Z,1.52
2022-08-09T10:09:54.702Z,1.80
2022-08-09T10:12:49.823Z,1.77
2022-08-09T10:16:55.488Z,1.67
2022-08-09T10:19:07.895Z,1.58
2022-08-09T10:21:57.573Z,1.42
2022-08-09T10:24:47.902Z,1.80
2022-08-09T10:27:38.925Z,1.50
2022-08-09T10:34:08.510Z,1.77
2022-08-09T10:36:58.404Z,2.10
2022-08-09T10:39:49.191Z,1.67
2022-08-09T10:42:36.648Z,1.60
2022-08-09T10:45:31.755Z,1.88
2022-08-09T10:48:33.067Z,1.98
2022-08-09T10:51:53.019Z,1.77
2022-08-09T10:54:40.513Z,2.03
2022-08-09T10:57:37.999Z,2.00
2022-08-09T11:00:29.389Z,1.70
2022-08-09T11:03:28.049Z,1.90
2022-08-09T11:06:28.384Z,2.55
2022-08-09T11:09:19.281Z,2.17
2022-08-09T11:12:10.114Z,1.80
2022-08-09T11:14:59.436Z,2.10
2022-08-09T11:17:47.989Z,1.80
2022-08-09T11:20:44.432Z,1.80
2022-08-09T11:23:51.837Z,1.88
2022-08-09T11:26:47.385Z,1.63
2022-08-09T11:30:04.566Z,1.52
2022-08-09T11:33:06.103Z,1.55
2022-08-09T11:36:01.053Z,1.60
2022-08-09T11:39:01.818Z,1.73
2022-08-09T11:41:50.086Z,1.45
2022-08-09T11:44:45.049Z,1.77
2022-08-09T11:47:49.146Z,1.60
2022-08-09T11:52:57.049Z,1.98
2022-08-09T11:54:28.984Z,1.70
2022-08-09T11:57:56.850Z,1.83
2022-08-09T12:01:00.738Z,1.70
2022-08-09T12:03:56.754Z,1.75
2022-08-09T12:06:56.657Z,1.70
2022-08-09T12:09:50.664Z,1.48
2022-08-09T12:12:49.154Z,2.08
2022-08-09T12:15:48.819Z,1.88
2022-08-09T12:18:38.864Z,1.52
2022-08-09T12:21:38.551Z,1.30
2022-08-09T12:24:26.535Z,1.70
2022-08-09T12:28:58.495Z,1.85
2022-08-09T12:30:38.914Z,1.52
2022-08-09T12:33:51.405Z,1.50
2022-08-09T12:36:36.246Z,1.40
2022-08-09T12:39:24.043Z,1.55
2022-08-09T12:42:16.578Z,1.33
2022-08-09T12:45:32.373Z,1.42
2022-08-09T12:48:27.979Z,1.33
2022-08-09T12:51:52.655Z,1.60
2022-08-09T12:54:31.129Z,1.40
2022-08-09T12:57:36.405Z,1.50
2022-08-09T13:00:32.902Z,1.30
2022-08-09T13:03:53.724Z,1.45
2022-08-09T13:06:46.091Z,1.67
2022-08-09T13:09:38.371Z,1.40
2022-08-09T13:12:28.148Z,1.77
2022-08-09T13:15:16.255Z,1.58
2022-08-09T13:18:09.519Z,1.45
2022-08-09T13:22:34.016Z,1.50
2022-08-09T13:24:44.658Z,1.67
2022-08-09T13:27:40.121Z,1.60
2022-08-09T13:30:51.225Z,1.45
2022-08-09T13:33:52.471Z,1.70
2022-08-09T13:36:43.408Z,1.52
2022-08-09T13:41:52.560Z,1.50
2022-08-09T13:42:40.011Z,2.00
2022-08-09T13:45:32.580Z,1.30
2022-08-09T13:48:35.691Z,1.50
2022-08-09T13:51:23.843Z,1.45
2022-08-09T13:54:14.592Z,1.55
2022-08-09T13:57:02.995Z,1.30
2022-08-09T13:59:54.084Z,1.23
2022-08-09T14:03:03.305Z,1.40
2022-08-09T14:05:58.644Z,1.50
2022-08-09T14:08:49.598Z,1.45
2022-08-09T14:11:47.029Z,1.45
2022-08-09T14:14:35.585Z,1.38
2022-08-09T14:17:23.094Z,1.52
2022-08-09T14:20:11.636Z,1.10
2022-08-09T14:23:00.526Z,1.50
2022-08-09T14:25:48.270Z,1.38
2022-08-09T14:28:38.918Z,1.40
2022-08-09T14:31:36.173Z,1.55
2022-08-09T14:34:35.289Z,1.58
2022-08-09T14:37:40.878Z,1.38
2022-08-09T14:40:38.965Z,1.50
2022-08-09T14:43:47.367Z,1.35
2022-08-09T14:46:46.692Z,1.75
2022-08-09T14:49:51.198Z,1.60
2022-08-09T14:52:50.767Z,1.60
2022-08-09T14:55:38.357Z,1.40
2022-08-09T14:58:30.377Z,1.40
2022-08-09T15:01:19.938Z,1.58
2022-08-09T15:04:09.733Z,1.40
2022-08-09T15:06:57.862Z,1.73
2022-08-09T15:10:07.231Z,1.60
2022-08-09T15:12:54.452Z,1.23
2022-08-09T15:15:43.796Z,1.35
2022-08-09T15:18:31.354Z,1.40
2022-08-09T15:21:55.627Z,1.25
2022-08-09T15:24:27.838Z,1.20
2022-08-09T15:27:16.824Z,1.13
2022-08-09T15:30:57.429Z,1.23
2022-08-09T15:33:23.514Z,1.27
2022-08-09T15:36:28.465Z,1.40
2022-08-09T15:39:17.895Z,1.30
2022-08-09T15:42:06.012Z,1.42
2022-08-09T15:44:58.190Z,1.20
2022-08-09T15:48:03.415Z,1.50
2022-08-09T15:50:53.454Z,1.70
2022-08-09T15:54:04.360Z,1.00
2022-08-09T15:56:53.835Z,1.27
2022-08-09T15:59:44.796Z,1.38
2022-08-09T16:02:39.197Z,1.38
2022-08-09T16:05:47.672Z,1.80
2022-08-09T16:12:53.480Z,1.10
2022-08-09T16:20:30.301Z,1.40
2022-08-09T16:27:54.563Z,1.60
2022-08-09T16:30:32.464Z,1.20
2022-08-09T16:33:23.793Z,2.75
2022-08-09T16:36:16.289Z,2.67
2022-08-09T16:39:07.042Z,1.63
2022-08-09T16:42:04.062Z,1.90
2022-08-09T16:44:52.646Z,1.70
2022-08-09T16:48:39.565Z,1.90
2022-08-09T16:50:59.718Z,1.63
2022-08-09T16:54:26.205Z,1.75
2022-08-09T16:57:05.814Z,1.50
2022-08-09T16:59:58.450Z,1.77
2022-08-09T17:02:46.656Z,1.75
2022-08-09T17:06:08.591Z,1.42
2022-08-09T17:09:01.816Z,1.75
2022-08-09T17:11:54.673Z,1.30
2022-08-09T17:14:47.764Z,1.50
2022-08-09T17:17:50.363Z,1.50
2022-08-09T17:20:49.183Z,1.95
2022-08-09T17:24:20.197Z,3.53
2022-08-09T17:26:53.327Z,1.80
2022-08-09T17:29:41.562Z,2.10
2022-08-09T17:32:38.018Z,1.60
2022-08-09T17:35:26.950Z,2.05
2022-08-09T17:38:32.386Z,1.90
2022-08-09T17:41:22.084Z,1.67
2022-08-09T17:44:38.750Z,1.70
2022-08-09T17:47:33.057Z,2.05
2022-08-09T17:50:38.041Z,1.42
2022-08-09T17:53:26.042Z,1.73
2022-08-09T17:56:14.150Z,1.30
2022-08-09T17:59:09.654Z,1.33
2022-08-09T18:02:12.792Z,1.52
2022-08-09T18:05:08.283Z,1.63
2022-08-09T18:08:01.011Z,1.63
2022-08-09T18:11:00.924Z,1.70
2022-08-09T18:13:55.620Z,1.75
2022-08-09T18:16:53.655Z,2.83
2022-08-09T18:21:00.288Z,1.90
2022-08-09T18:22:51.043Z,1.45
2022-08-09T18:25:45.536Z,1.60
2022-08-09T18:30:39.327Z,1.58
2022-08-09T18:31:55.328Z,1.63
2022-08-09T18:34:43.930Z,1.75
2022-08-09T18:37:47.784Z,1.77
2022-08-09T18:40:41.801Z,2.22
2022-08-09T18:43:35.127Z,1.75
2022-08-09T18:46:50.228Z,1.65
2022-08-09T18:49:32.082Z,1.80
2022-08-09T18:52:24.611Z,1.60
2022-08-09T18:55:45.452Z,2.05
2022-08-09T18:58:32.136Z,1.80
2022-08-09T19:01:21.288Z,2.00
2022-08-09T19:04:10.421Z,1.70
2022-08-09T19:06:58.142Z,1.95
2022-08-09T19:10:15.747Z,2.15
2022-08-09T19:13:20.764Z,2.00
2022-08-09T19:16:03.218Z,1.92
2022-08-09T19:18:53.464Z,2.35
2022-08-09T19:21:47.571Z,1.90
2022-08-09T19:25:09.883Z,2.03
2022-08-09T19:27:48.148Z,1.70
2022-08-09T19:30:40.394Z,2.20
2022-08-09T19:33:32.686Z,1.95
2022-08-09T19:36:23.214Z,1.90
2022-08-09T19:39:20.557Z,1.85
2022-08-09T19:42:19.516Z,2.08
2022-08-09T19:45:07.882Z,1.85
2022-08-09T19:47:55.796Z,2.03
2022-08-09T19:50:49.606Z,2.08
2022-08-09T19:53:47.705Z,2.30
2022-08-09T19:56:41.176Z,2.10
2022-08-09T19:59:57.839Z,2.00
2022-08-09T20:04:26.219Z,2.10
2022-08-09T20:05:51.501Z,1.88
2022-08-09T20:08:40.106Z,2.00
2022-08-09T20:11:33.905Z,1.92
2022-08-09T20:14:30.647Z,1.90
2022-08-09T20:17:18.533Z,2.13
2022-08-09T20:20:06.940Z,1.95
2022-08-09T20:22:56.104Z,1.80
2022-08-09T20:25:51.614Z,1.90
2022-08-09T20:28:48.088Z,2.00
2022-08-09T20:31:51.441Z,2.00
2022-08-09T20:34:45.099Z,2.03
2022-08-09T20:37:37.870Z,2.25
2022-08-09T20:40:41.336Z,1.83
2022-08-09T20:43:28.807Z,1.80
2022-08-09T20:46:41.789Z,1.88
2022-08-09T20:49:24.259Z,1.90
2022-08-09T20:52:20.637Z,1.98
2022-08-09T20:55:09.205Z,1.83
2022-08-09T20:58:08.486Z,1.55
2022-08-09T21:01:32.816Z,1.80
2022-08-09T21:05:49.474Z,2.03
2022-08-09T21:07:30.055Z,1.83
2022-08-09T21:10:26.481Z,1.90
2022-08-09T21:13:18.494Z,1.92
2022-08-09T21:16:19.225Z,1.73
2022-08-09T21:20:17.938Z,2.53
2022-08-09T21:22:36.114Z,2.00
2022-08-09T21:25:43.945Z,1.98
2022-08-09T21:28:55.395Z,1.80
2022-08-09T21:31:49.138Z,2.35
2022-08-09T21:34:37.226Z,2.10
2022-08-09T21:37:35.548Z,1.83
2022-08-09T21:43:06.214Z,2.00
2022-08-09T21:45:53.713Z,2.20
2022-08-09T21:48:49.079Z,2.25
2022-08-09T21:51:43.388Z,1.90
2022-08-09T21:54:31.746Z,2.10
2022-08-09T21:57:37.071Z,2.20
2022-08-09T22:00:32.407Z,2.33
2022-08-09T22:03:25.885Z,2.30
2022-08-09T22:06:13.422Z,2.22
2022-08-09T22:09:01.576Z,2.20
2022-08-09T22:12:09.466Z,2.13
2022-08-09T22:14:56.866Z,2.00
2022-08-09T22:17:47.652Z,2.25
2022-08-09T22:20:35.818Z,2.22
2022-08-09T22:23:25.443Z,2.40
2022-08-09T22:26:34.372Z,2.67
2022-08-09T22:29:28.785Z,2.15
2022-08-09T22:32:29.727Z,2.33
2022-08-09T22:35:59.817Z,1.83
2022-08-09T22:38:26.599Z,2.10
2022-08-09T22:41:14.010Z,2.20
2022-08-09T22:44:04.221Z,2.00
2022-08-09T22:48:15.791Z,2.13
2022-08-09T22:50:00.244Z,2.40
2022-08-09T22:52:54.653Z,2.20
2022-08-09T22:56:29.506Z,2.40
2022-08-09T22:58:52.832Z,2.15
2022-08-09T23:01:41.049Z,2.42
2022-08-09T23:04:32.778Z,2.40
2022-08-09T23:08:16.328Z,2.53
2022-08-09T23:10:46.648Z,2.10
2022-08-09T23:13:35.567Z,1.88
2022-08-09T23:16:23.441Z,2.80
2022-08-09T23:19:11.314Z,2.22
2022-08-09T23:21:59.269Z,2.50
2022-08-09T23:24:48.617Z,2.88
2022-08-09T23:27:36.734Z,2.60
2022-08-09T23:30:52.138Z,2.33
2022-08-09T23:33:40.139Z,2.22
2022-08-09T23:36:28.106Z,2.05
2022-08-09T23:39:16.055Z,2.25
2022-08-09T23:42:03.922Z,2.22
2022-08-09T23:44:51.846Z,2.38
2022-08-09T23:47:39.286Z,2.30
2022-08-09T23:50:27.224Z,2.33
2022-08-09T23:53:14.637Z,2.30
2022-08-09T23:56:03.644Z,2.22
2022-08-09T23:58:54.332Z,2.67
